sensor_id;sensor_type;location;lat;lon;timestamp;P1;durP1;ratioP1;P2;durP2;ratioP2
12650;SDS011;6390;49.400;8.670;2022-11-20T00:01:15;8.32;;;7.00;;
12650;SDS011;6390;49.400;8.670;2022-11-20T00:03:46;9.40;;;7.07;;
12650;SDS011;6390;49.400;8.670;2022-11-20T00:06:13;9.50;;;6.72;;
12650;SDS011;6390;49.400;8.670;2022-11-20T00:08:42;7.55;;;6.05;;
12650;SDS011;6390;49.400;8.670;2022-11-20T00:11:10;8.57;;;7.03;;
12650;SDS011;6390;49.400;8.670;2022-11-20T00:13:41;7.55;;;6.47;;
12650;SDS011;6390;49.400;8.670;2022-11-20T00:16:09;8.27;;;7.15;;
12650;SDS011;6390;49.400;8.670;2022-11-20T00:18:37;8.93;;;6.88;;
12650;SDS011;6390;49.400;8.670;2022-11-20T00:21:04;9.57;;;7.18;;
12650;SDS011;6390;49.400;8.670;2022-11-20T00:23:32;9.95;;;7.15;;
12650;SDS011;6390;49.400;8.670;2022-11-20T00:26:02;8.85;;;7.22;;
12650;SDS011;6390;49.400;8.670;2022-11-20T00:28:30;9.00;;;7.10;;
12650;SDS011;6390;49.400;8.670;2022-11-20T00:31:03;9.00;;;6.88;;
12650;SDS011;6390;49.400;8.670;2022-11-20T00:33:34;8.70;;;7.18;;
12650;SDS011;6390;49.400;8.670;2022-11-20T00:36:01;9.07;;;6.88;;
12650;SDS011;6390;49.400;8.670;2022-11-20T00:38:30;8.55;;;6.78;;
12650;SDS011;6390;49.400;8.670;2022-11-20T00:41:01;8.45;;;6.63;;
12650;SDS011;6390;49.400;8.670;2022-11-20T00:43:29;8.05;;;6.45;;
12650;SDS011;6390;49.400;8.670;2022-11-20T00:46:03;7.88;;;6.25;;
12650;SDS011;6390;49.400;8.670;2022-11-20T00:48:32;7.50;;;6.15;;
12650;SDS011;6390;49.400;8.670;2022-11-20T00:50:59;7.47;;;6.35;;
12650;SDS011;6390;49.400;8.670;2022-11-20T00:53:25;8.63;;;6.90;;
12650;SDS011;6390;49.400;8.670;2022-11-20T00:55:55;7.93;;;6.78;;
12650;SDS011;6390;49.400;8.670;2022-11-20T00:58:31;8.65;;;7.15;;
12650;SDS011;6390;49.400;8.670;2022-11-20T01:01:06;8.32;;;6.85;;
12650;SDS011;6390;49.400;8.670;2022-11-20T01:03:33;7.90;;;6.68;;
12650;SDS011;6390;49.400;8.670;2022-11-20T01:06:03;7.85;;;6.53;;
12650;SDS011;6390;49.400;8.670;2022-11-20T01:08:32;8.02;;;6.30;;
12650;SDS011;6390;49.400;8.670;2022-11-20T01:11:00;8.52;;;6.40;;
12650;SDS011;6390;49.400;8.670;2022-11-20T01:13:32;7.47;;;6.63;;
12650;SDS011;6390;49.400;8.670;2022-11-20T01:16:03;6.82;;;5.85;;
12650;SDS011;6390;49.400;8.670;2022-11-20T01:18:41;8.02;;;6.53;;
12650;SDS011;6390;49.400;8.670;2022-11-20T01:21:10;7.22;;;5.90;;
12650;SDS011;6390;49.400;8.670;2022-11-20T01:23:40;7.60;;;6.65;;
12650;SDS011;6390;49.400;8.670;2022-11-20T01:26:08;7.70;;;6.05;;
12650;SDS011;6390;49.400;8.670;2022-11-20T01:28:37;7.93;;;6.68;;
12650;SDS011;6390;49.400;8.670;2022-11-20T01:31:18;6.95;;;5.88;;
12650;SDS011;6390;49.400;8.670;2022-11-20T01:33:50;7.15;;;6.00;;
12650;SDS011;6390;49.400;8.670;2022-11-20T01:36:20;7.88;;;6.18;;
12650;SDS011;6390;49.400;8.670;2022-11-20T01:38:52;7.40;;;5.85;;
12650;SDS011;6390;49.400;8.670;2022-11-20T01:41:19;8.27;;;6.43;;
12650;SDS011;6390;49.400;8.670;2022-11-20T01:44:04;7.32;;;5.95;;
12650;SDS011;6390;49.400;8.670;2022-11-20T01:46:35;7.75;;;6.65;;
12650;SDS011;6390;49.400;8.670;2022-11-20T01:51:46;9.05;;;6.65;;
12650;SDS011;6390;49.400;8.670;2022-11-20T01:54:25;8.30;;;6.55;;
12650;SDS011;6390;49.400;8.670;2022-11-20T01:57:01;8.73;;;6.85;;
12650;SDS011;6390;49.400;8.670;2022-11-20T01:59:27;7.75;;;6.30;;
12650;SDS011;6390;49.400;8.670;2022-11-20T02:01:54;8.27;;;6.35;;
12650;SDS011;6390;49.400;8.670;2022-11-20T02:04:20;7.95;;;6.40;;
12650;SDS011;6390;49.400;8.670;2022-11-20T02:06:59;8.68;;;6.57;;
12650;SDS011;6390;49.400;8.670;2022-11-20T02:09:26;7.95;;;6.20;;
12650;SDS011;6390;49.400;8.670;2022-11-20T02:11:53;8.52;;;6.57;;
12650;SDS011;6390;49.400;8.670;2022-11-20T02:14:20;8.00;;;6.43;;
12650;SDS011;6390;49.400;8.670;2022-11-20T02:16:48;7.07;;;6.10;;
12650;SDS011;6390;49.400;8.670;2022-11-20T02:19:22;9.02;;;6.90;;
12650;SDS011;6390;49.400;8.670;2022-11-20T02:21:59;8.35;;;6.57;;
12650;SDS011;6390;49.400;8.670;2022-11-20T02:24:47;7.53;;;6.38;;
12650;SDS011;6390;49.400;8.670;2022-11-20T02:27:15;6.93;;;6.10;;
12650;SDS011;6390;49.400;8.670;2022-11-20T02:29:44;8.23;;;6.57;;
12650;SDS011;6390;49.400;8.670;2022-11-20T02:32:19;10.25;;;6.10;;
12650;SDS011;6390;49.400;8.670;2022-11-20T02:34:53;8.77;;;6.22;;
12650;SDS011;6390;49.400;8.670;2022-11-20T02:37:20;7.68;;;6.07;;
12650;SDS011;6390;49.400;8.670;2022-11-20T02:39:47;8.45;;;6.20;;
12650;SDS011;6390;49.400;8.670;2022-11-20T02:42:16;7.50;;;6.25;;
12650;SDS011;6390;49.400;8.670;2022-11-20T02:44:42;7.15;;;5.90;;
12650;SDS011;6390;49.400;8.670;2022-11-20T02:47:09;8.70;;;6.85;;
12650;SDS011;6390;49.400;8.670;2022-11-20T02:49:35;7.43;;;6.13;;
12650;SDS011;6390;49.400;8.670;2022-11-20T02:52:01;7.97;;;5.97;;
12650;SDS011;6390;49.400;8.670;2022-11-20T02:54:27;7.80;;;6.10;;
12650;SDS011;6390;49.400;8.670;2022-11-20T02:56:53;9.00;;;6.25;;
12650;SDS011;6390;49.400;8.670;2022-11-20T02:59:19;7.80;;;6.20;;
12650;SDS011;6390;49.400;8.670;2022-11-20T03:01:45;7.93;;;6.30;;
12650;SDS011;6390;49.400;8.670;2022-11-20T03:04:11;7.22;;;6.20;;
12650;SDS011;6390;49.400;8.670;2022-11-20T03:06:37;6.50;;;5.80;;
12650;SDS011;6390;49.400;8.670;2022-11-20T03:09:03;7.50;;;6.05;;
12650;SDS011;6390;49.400;8.670;2022-11-20T03:11:30;7.07;;;6.00;;
12650;SDS011;6390;49.400;8.670;2022-11-20T03:13:56;8.43;;;6.38;;
12650;SDS011;6390;49.400;8.670;2022-11-20T03:16:22;7.57;;;5.95;;
12650;SDS011;6390;49.400;8.670;2022-11-20T03:18:49;8.00;;;6.25;;
12650;SDS011;6390;49.400;8.670;2022-11-20T03:21:16;6.68;;;5.88;;
12650;SDS011;6390;49.400;8.670;2022-11-20T03:23:42;7.57;;;5.95;;
12650;SDS011;6390;49.400;8.670;2022-11-20T03:26:22;7.00;;;5.93;;
12650;SDS011;6390;49.400;8.670;2022-11-20T03:31:19;6.57;;;5.45;;
12650;SDS011;6390;49.400;8.670;2022-11-20T03:33:47;6.45;;;5.70;;
12650;SDS011;6390;49.400;8.670;2022-11-20T03:36:13;6.15;;;5.53;;
12650;SDS011;6390;49.400;8.670;2022-11-20T03:38:41;7.15;;;5.78;;
12650;SDS011;6390;49.400;8.670;2022-11-20T03:41:08;6.80;;;5.60;;
12650;SDS011;6390;49.400;8.670;2022-11-20T03:43:40;6.93;;;6.03;;
12650;SDS011;6390;49.400;8.670;2022-11-20T03:46:07;7.28;;;5.78;;
12650;SDS011;6390;49.400;8.670;2022-11-20T03:48:33;6.13;;;5.50;;
12650;SDS011;6390;49.400;8.670;2022-11-20T03:51:06;6.82;;;5.70;;
12650;SDS011;6390;49.400;8.670;2022-11-20T03:53:44;6.80;;;5.47;;
12650;SDS011;6390;49.400;8.670;2022-11-20T03:56:12;6.88;;;5.57;;
12650;SDS011;6390;49.400;8.670;2022-11-20T03:58:40;6.47;;;5.38;;
12650;SDS011;6390;49.400;8.670;2022-11-20T04:01:07;6.88;;;5.57;;
12650;SDS011;6390;49.400;8.670;2022-11-20T04:03:35;7.57;;;5.53;;
12650;SDS011;6390;49.400;8.670;2022-11-20T04:06:03;5.72;;;4.95;;
12650;SDS011;6390;49.400;8.670;2022-11-20T04:08:32;6.13;;;5.18;;
12650;SDS011;6390;49.400;8.670;2022-11-20T04:11:11;6.03;;;5.30;;
12650;SDS011;6390;49.400;8.670;2022-11-20T04:13:40;7.78;;;5.57;;
12650;SDS011;6390;49.400;8.670;2022-11-20T04:16:07;6.70;;;5.97;;
12650;SDS011;6390;49.400;8.670;2022-11-20T04:18:34;6.53;;;5.57;;
12650;SDS011;6390;49.400;8.670;2022-11-20T04:21:01;7.22;;;5.93;;
12650;SDS011;6390;49.400;8.670;2022-11-20T04:23:27;7.80;;;5.97;;
12650;SDS011;6390;49.400;8.670;2022-11-20T04:25:53;8.80;;;5.88;;
12650;SDS011;6390;49.400;8.670;2022-11-20T04:28:20;7.13;;;5.53;;
12650;SDS011;6390;49.400;8.670;2022-11-20T04:30:46;7.93;;;6.30;;
12650;SDS011;6390;49.400;8.670;2022-11-20T04:33:12;5.85;;;4.93;;
12650;SDS011;6390;49.400;8.670;2022-11-20T04:35:38;7.22;;;5.55;;
12650;SDS011;6390;49.400;8.670;2022-11-20T04:38:04;7.07;;;5.70;;
12650;SDS011;6390;49.400;8.670;2022-11-20T04:40:30;7.35;;;5.78;;
12650;SDS011;6390;49.400;8.670;2022-11-20T04:42:56;7.13;;;5.90;;
12650;SDS011;6390;49.400;8.670;2022-11-20T04:45:22;6.82;;;5.70;;
12650;SDS011;6390;49.400;8.670;2022-11-20T04:47:49;7.47;;;5.60;;
12650;SDS011;6390;49.400;8.670;2022-11-20T04:50:15;6.78;;;5.55;;
12650;SDS011;6390;49.400;8.670;2022-11-20T04:52:41;8.95;;;6.03;;
12650;SDS011;6390;49.400;8.670;2022-11-20T04:55:07;7.35;;;5.57;;
12650;SDS011;6390;49.400;8.670;2022-11-20T04:57:33;8.48;;;5.40;;
12650;SDS011;6390;49.400;8.670;2022-11-20T04:59:59;6.32;;;5.13;;
12650;SDS011;6390;49.400;8.670;2022-11-20T05:02:25;7.28;;;5.70;;
12650;SDS011;6390;49.400;8.670;2022-11-20T05:04:51;5.93;;;4.82;;
12650;SDS011;6390;49.400;8.670;2022-11-20T05:07:18;6.07;;;4.85;;
12650;SDS011;6390;49.400;8.670;2022-11-20T05:09:44;5.55;;;4.60;;
12650;SDS011;6390;49.400;8.670;2022-11-20T05:12:10;6.53;;;5.00;;
12650;SDS011;6390;49.400;8.670;2022-11-20T05:14:36;6.03;;;4.95;;
12650;SDS011;6390;49.400;8.670;2022-11-20T05:17:02;6.13;;;4.95;;
12650;SDS011;6390;49.400;8.670;2022-11-20T05:19:28;6.40;;;5.40;;
12650;SDS011;6390;49.400;8.670;2022-11-20T05:21:54;8.63;;;5.43;;
12650;SDS011;6390;49.400;8.670;2022-11-20T05:24:20;7.50;;;5.38;;
12650;SDS011;6390;49.400;8.670;2022-11-20T05:26:46;8.07;;;5.75;;
12650;SDS011;6390;49.400;8.670;2022-11-20T05:29:13;7.20;;;5.22;;
12650;SDS011;6390;49.400;8.670;2022-11-20T05:31:39;6.53;;;5.22;;
12650;SDS011;6390;49.400;8.670;2022-11-20T05:34:06;7.03;;;5.45;;
12650;SDS011;6390;49.400;8.670;2022-11-20T05:36:33;6.15;;;5.00;;
12650;SDS011;6390;49.400;8.670;2022-11-20T05:38:59;6.80;;;5.10;;
12650;SDS011;6390;49.400;8.670;2022-11-20T05:41:25;6.45;;;5.45;;
12650;SDS011;6390;49.400;8.670;2022-11-20T05:43:51;5.75;;;5.03;;
12650;SDS011;6390;49.400;8.670;2022-11-20T05:46:19;6.40;;;5.03;;
12650;SDS011;6390;49.400;8.670;2022-11-20T05:48:46;6.05;;;4.85;;
12650;SDS011;6390;49.400;8.670;2022-11-20T05:51:14;6.65;;;5.18;;
12650;SDS011;6390;49.400;8.670;2022-11-20T05:53:42;7.25;;;5.32;;
12650;SDS011;6390;49.400;8.670;2022-11-20T05:56:10;7.15;;;5.50;;
12650;SDS011;6390;49.400;8.670;2022-11-20T05:58:38;5.55;;;4.65;;
12650;SDS011;6390;49.400;8.670;2022-11-20T06:01:09;5.90;;;4.70;;
12650;SDS011;6390;49.400;8.670;2022-11-20T06:03:39;6.80;;;5.22;;
12650;SDS011;6390;49.400;8.670;2022-11-20T06:06:07;6.15;;;5.15;;
12650;SDS011;6390;49.400;8.670;2022-11-20T06:08:33;6.68;;;5.28;;
12650;SDS011;6390;49.400;8.670;2022-11-20T06:11:07;7.97;;;5.85;;
12650;SDS011;6390;49.400;8.670;2022-11-20T06:13:34;5.70;;;5.05;;
12650;SDS011;6390;49.400;8.670;2022-11-20T06:16:01;6.97;;;5.28;;
12650;SDS011;6390;49.400;8.670;2022-11-20T06:18:28;7.00;;;5.28;;
12650;SDS011;6390;49.400;8.670;2022-11-20T06:20:59;6.38;;;4.88;;
12650;SDS011;6390;49.400;8.670;2022-11-20T06:23:29;6.43;;;4.93;;
12650;SDS011;6390;49.400;8.670;2022-11-20T06:25:56;7.80;;;5.82;;
12650;SDS011;6390;49.400;8.670;2022-11-20T06:28:22;6.82;;;5.47;;
12650;SDS011;6390;49.400;8.670;2022-11-20T06:30:48;7.50;;;5.70;;
12650;SDS011;6390;49.400;8.670;2022-11-20T06:33:14;6.55;;;5.43;;
12650;SDS011;6390;49.400;8.670;2022-11-20T06:35:40;7.07;;;5.18;;
12650;SDS011;6390;49.400;8.670;2022-11-20T06:38:06;7.03;;;5.07;;
12650;SDS011;6390;49.400;8.670;2022-11-20T06:40:32;8.75;;;5.43;;
12650;SDS011;6390;49.400;8.670;2022-11-20T06:42:58;7.50;;;5.65;;
12650;SDS011;6390;49.400;8.670;2022-11-20T06:45:24;7.05;;;5.72;;
12650;SDS011;6390;49.400;8.670;2022-11-20T06:47:50;6.63;;;4.88;;
12650;SDS011;6390;49.400;8.670;2022-11-20T06:50:18;8.43;;;5.50;;
12650;SDS011;6390;49.400;8.670;2022-11-20T06:52:44;7.32;;;5.57;;
12650;SDS011;6390;49.400;8.670;2022-11-20T06:55:10;6.10;;;5.32;;
12650;SDS011;6390;49.400;8.670;2022-11-20T06:57:36;7.65;;;5.38;;
12650;SDS011;6390;49.400;8.670;2022-11-20T07:00:02;6.88;;;5.30;;
12650;SDS011;6390;49.400;8.670;2022-11-20T07:02:29;7.35;;;5.70;;
12650;SDS011;6390;49.400;8.670;2022-11-20T07:04:55;8.68;;;5.88;;
12650;SDS011;6390;49.400;8.670;2022-11-20T07:07:21;8.05;;;5.85;;
12650;SDS011;6390;49.400;8.670;2022-11-20T07:09:47;7.57;;;6.05;;
12650;SDS011;6390;49.400;8.670;2022-11-20T07:12:13;6.63;;;5.28;;
12650;SDS011;6390;49.400;8.670;2022-11-20T07:14:39;7.13;;;5.68;;
12650;SDS011;6390;49.400;8.670;2022-11-20T07:17:05;6.85;;;5.32;;
12650;SDS011;6390;49.400;8.670;2022-11-20T07:19:31;7.32;;;5.65;;
12650;SDS011;6390;49.400;8.670;2022-11-20T07:21:57;7.05;;;5.43;;
12650;SDS011;6390;49.400;8.670;2022-11-20T07:24:23;6.68;;;5.65;;
12650;SDS011;6390;49.400;8.670;2022-11-20T07:26:49;7.10;;;5.80;;
12650;SDS011;6390;49.400;8.670;2022-11-20T07:29:15;8.68;;;5.43;;
12650;SDS011;6390;49.400;8.670;2022-11-20T07:31:42;8.35;;;5.90;;
12650;SDS011;6390;49.400;8.670;2022-11-20T07:34:08;8.00;;;5.75;;
12650;SDS011;6390;49.400;8.670;2022-11-20T07:36:34;6.55;;;5.07;;
12650;SDS011;6390;49.400;8.670;2022-11-20T07:39:00;7.07;;;5.22;;
12650;SDS011;6390;49.400;8.670;2022-11-20T07:41:26;7.05;;;5.45;;
12650;SDS011;6390;49.400;8.670;2022-11-20T07:43:53;7.45;;;5.57;;
12650;SDS011;6390;49.400;8.670;2022-11-20T07:46:19;7.18;;;5.63;;
12650;SDS011;6390;49.400;8.670;2022-11-20T07:48:46;7.57;;;5.10;;
12650;SDS011;6390;49.400;8.670;2022-11-20T07:51:12;7.63;;;5.38;;
12650;SDS011;6390;49.400;8.670;2022-11-20T07:53:38;8.02;;;5.95;;
12650;SDS011;6390;49.400;8.670;2022-11-20T07:56:04;8.45;;;6.05;;
12650;SDS011;6390;49.400;8.670;2022-11-20T07:58:31;8.93;;;5.97;;
12650;SDS011;6390;49.400;8.670;2022-11-20T08:01:06;8.18;;;5.95;;
12650;SDS011;6390;49.400;8.670;2022-11-20T08:03:32;8.05;;;6.00;;
12650;SDS011;6390;49.400;8.670;2022-11-20T08:05:59;8.20;;;6.22;;
12650;SDS011;6390;49.400;8.670;2022-11-20T08:08:26;8.23;;;6.13;;
12650;SDS011;6390;49.400;8.670;2022-11-20T08:10:53;7.00;;;5.50;;
12650;SDS011;6390;49.400;8.670;2022-11-20T08:13:41;7.68;;;5.88;;
12650;SDS011;6390;49.400;8.670;2022-11-20T08:16:26;7.45;;;5.40;;
12650;SDS011;6390;49.400;8.670;2022-11-20T08:18:52;8.10;;;6.15;;
12650;SDS011;6390;49.400;8.670;2022-11-20T08:21:19;7.72;;;5.45;;
12650;SDS011;6390;49.400;8.670;2022-11-20T08:23:45;8.35;;;5.80;;
12650;SDS011;6390;49.400;8.670;2022-11-20T08:26:11;8.35;;;5.65;;
12650;SDS011;6390;49.400;8.670;2022-11-20T08:28:37;7.70;;;5.78;;
12650;SDS011;6390;49.400;8.670;2022-11-20T08:31:03;7.82;;;5.95;;
12650;SDS011;6390;49.400;8.670;2022-11-20T08:33:29;6.65;;;5.20;;
12650;SDS011;6390;49.400;8.670;2022-11-20T08:36:04;6.95;;;5.55;;
12650;SDS011;6390;49.400;8.670;2022-11-20T08:38:32;8.50;;;6.05;;
12650;SDS011;6390;49.400;8.670;2022-11-20T08:40:58;8.50;;;6.30;;
12650;SDS011;6390;49.400;8.670;2022-11-20T08:43:45;10.05;;;6.32;;
12650;SDS011;6390;49.400;8.670;2022-11-20T08:46:11;10.13;;;7.22;;
12650;SDS011;6390;49.400;8.670;2022-11-20T08:48:37;9.27;;;6.40;;
12650;SDS011;6390;49.400;8.670;2022-11-20T08:51:03;12.15;;;7.30;;
12650;SDS011;6390;49.400;8.670;2022-11-20T08:53:29;10.35;;;7.07;;
12650;SDS011;6390;49.400;8.670;2022-11-20T08:55:56;10.75;;;7.03;;
12650;SDS011;6390;49.400;8.670;2022-11-20T08:58:23;10.73;;;7.38;;
12650;SDS011;6390;49.400;8.670;2022-11-20T09:00:50;11.88;;;7.88;;
12650;SDS011;6390;49.400;8.670;2022-11-20T09:03:16;12.82;;;8.18;;
12650;SDS011;6390;49.400;8.670;2022-11-20T09:05:42;11.85;;;7.80;;
12650;SDS011;6390;49.400;8.670;2022-11-20T09:08:08;11.57;;;7.47;;
12650;SDS011;6390;49.400;8.670;2022-11-20T09:10:34;11.63;;;7.70;;
12650;SDS011;6390;49.400;8.670;2022-11-20T09:13:01;13.02;;;8.30;;
12650;SDS011;6390;49.400;8.670;2022-11-20T09:15:27;12.68;;;8.50;;
12650;SDS011;6390;49.400;8.670;2022-11-20T09:17:54;9.68;;;7.13;;
12650;SDS011;6390;49.400;8.670;2022-11-20T09:20:23;12.85;;;8.02;;
12650;SDS011;6390;49.400;8.670;2022-11-20T09:22:50;12.32;;;8.52;;
12650;SDS011;6390;49.400;8.670;2022-11-20T09:25:16;14.18;;;9.13;;
12650;SDS011;6390;49.400;8.670;2022-11-20T09:27:42;14.23;;;8.65;;
12650;SDS011;6390;49.400;8.670;2022-11-20T09:30:10;13.77;;;9.43;;
12650;SDS011;6390;49.400;8.670;2022-11-20T09:32:38;14.73;;;9.15;;
12650;SDS011;6390;49.400;8.670;2022-11-20T09:35:05;14.38;;;9.40;;
12650;SDS011;6390;49.400;8.670;2022-11-20T09:37:32;16.85;;;10.02;;
12650;SDS011;6390;49.400;8.670;2022-11-20T09:39:58;16.90;;;10.25;;
12650;SDS011;6390;49.400;8.670;2022-11-20T09:42:38;14.60;;;9.77;;
12650;SDS011;6390;49.400;8.670;2022-11-20T09:45:23;15.20;;;8.88;;
12650;SDS011;6390;49.400;8.670;2022-11-20T09:54:35;13.38;;;8.50;;
12650;SDS011;6390;49.400;8.670;2022-11-20T09:57:38;14.05;;;8.73;;
12650;SDS011;6390;49.400;8.670;2022-11-20T10:00:04;14.02;;;8.18;;
12650;SDS011;6390;49.400;8.670;2022-11-20T10:02:37;14.18;;;8.90;;
12650;SDS011;6390;49.400;8.670;2022-11-20T10:05:29;16.10;;;9.65;;
12650;SDS011;6390;49.400;8.670;2022-11-20T10:08:22;14.85;;;9.05;;
12650;SDS011;6390;49.400;8.670;2022-11-20T10:10:56;14.30;;;8.63;;
12650;SDS011;6390;49.400;8.670;2022-11-20T10:13:45;14.15;;;8.23;;
12650;SDS011;6390;49.400;8.670;2022-11-20T10:19:51;13.25;;;8.75;;
12650;SDS011;6390;49.400;8.670;2022-11-20T10:26:00;14.15;;;8.05;;
12650;SDS011;6390;49.400;8.670;2022-11-20T10:31:39;13.75;;;8.20;;
12650;SDS011;6390;49.400;8.670;2022-11-20T10:34:29;13.55;;;8.63;;
12650;SDS011;6390;49.400;8.670;2022-11-20T10:37:15;13.68;;;8.60;;
12650;SDS011;6390;49.400;8.670;2022-11-20T10:39:47;12.02;;;7.63;;
12650;SDS011;6390;49.400;8.670;2022-11-20T10:42:42;14.18;;;8.70;;
12650;SDS011;6390;49.400;8.670;2022-11-20T10:48:18;13.27;;;8.27;;
12650;SDS011;6390;49.400;8.670;2022-11-20T10:50:50;13.90;;;8.35;;
12650;SDS011;6390;49.400;8.670;2022-11-20T10:53:45;12.15;;;7.80;;
12650;SDS011;6390;49.400;8.670;2022-11-20T10:56:56;11.25;;;7.25;;
12650;SDS011;6390;49.400;8.670;2022-11-20T10:59:41;16.05;;;8.57;;
12650;SDS011;6390;49.400;8.670;2022-11-20T11:02:33;14.68;;;8.50;;
12650;SDS011;6390;49.400;8.670;2022-11-20T11:05:17;13.40;;;8.02;;
12650;SDS011;6390;49.400;8.670;2022-11-20T11:08:13;13.13;;;7.93;;
12650;SDS011;6390;49.400;8.670;2022-11-20T11:10:48;15.73;;;9.48;;
12650;SDS011;6390;49.400;8.670;2022-11-20T11:13:25;10.70;;;7.85;;
12650;SDS011;6390;49.400;8.670;2022-11-20T11:15:53;14.48;;;9.00;;
12650;SDS011;6390;49.400;8.670;2022-11-20T11:18:30;14.30;;;8.27;;
12650;SDS011;6390;49.400;8.670;2022-11-20T11:21:01;12.07;;;8.38;;
12650;SDS011;6390;49.400;8.670;2022-11-20T11:23:37;17.27;;;9.57;;
12650;SDS011;6390;49.400;8.670;2022-11-20T11:26:05;15.48;;;8.98;;
12650;SDS011;6390;49.400;8.670;2022-11-20T11:28:58;12.98;;;8.75;;
12650;SDS011;6390;49.400;8.670;2022-11-20T11:31:28;11.63;;;8.20;;
12650;SDS011;6390;49.400;8.670;2022-11-20T11:34:06;13.40;;;9.18;;
12650;SDS011;6390;49.400;8.670;2022-11-20T11:36:37;13.00;;;8.13;;
12650;SDS011;6390;49.400;8.670;2022-11-20T11:39:04;12.82;;;9.05;;
12650;SDS011;6390;49.400;8.670;2022-11-20T11:41:36;13.95;;;9.20;;
12650;SDS011;6390;49.400;8.670;2022-11-20T11:52:54;12.50;;;8.32;;
12650;SDS011;6390;49.400;8.670;2022-11-20T11:55:36;14.25;;;9.18;;
12650;SDS011;6390;49.400;8.670;2022-11-20T12:00:44;15.32;;;9.88;;
12650;SDS011;6390;49.400;8.670;2022-11-20T12:03:27;15.60;;;9.88;;
12650;SDS011;6390;49.400;8.670;2022-11-20T12:06:01;14.88;;;9.05;;
12650;SDS011;6390;49.400;8.670;2022-11-20T12:14:28;15.93;;;9.57;;
12650;SDS011;6390;49.400;8.670;2022-11-20T12:17:00;15.63;;;10.05;;
12650;SDS011;6390;49.400;8.670;2022-11-20T12:19:31;15.10;;;10.20;;
12650;SDS011;6390;49.400;8.670;2022-11-20T12:33:40;15.68;;;10.18;;
12650;SDS011;6390;49.400;8.670;2022-11-20T12:36:32;13.25;;;10.02;;
12650;SDS011;6390;49.400;8.670;2022-11-20T12:39:15;13.63;;;9.18;;
12650;SDS011;6390;49.400;8.670;2022-11-20T12:54:23;13.05;;;8.32;;
12650;SDS011;6390;49.400;8.670;2022-11-20T12:57:11;15.30;;;9.10;;
12650;SDS011;6390;49.400;8.670;2022-11-20T13:08:48;13.65;;;9.20;;
12650;SDS011;6390;49.400;8.670;2022-11-20T13:14:14;12.50;;;8.95;;
12650;SDS011;6390;49.400;8.670;2022-11-20T13:19:39;13.45;;;8.93;;
12650;SDS011;6390;49.400;8.670;2022-11-20T13:22:07;14.50;;;9.57;;
12650;SDS011;6390;49.400;8.670;2022-11-20T13:24:34;15.10;;;9.50;;
12650;SDS011;6390;49.400;8.670;2022-11-20T13:29:40;13.68;;;9.45;;
12650;SDS011;6390;49.400;8.670;2022-11-20T13:32:14;14.02;;;9.75;;
12650;SDS011;6390;49.400;8.670;2022-11-20T13:34:55;13.52;;;9.27;;
12650;SDS011;6390;49.400;8.670;2022-11-20T13:37:28;12.82;;;9.10;;
12650;SDS011;6390;49.400;8.670;2022-11-20T13:42:39;14.80;;;10.00;;
12650;SDS011;6390;49.400;8.670;2022-11-20T13:45:32;14.27;;;9.20;;
12650;SDS011;6390;49.400;8.670;2022-11-20T13:48:01;13.45;;;8.98;;
12650;SDS011;6390;49.400;8.670;2022-11-20T13:54:05;14.63;;;8.73;;
12650;SDS011;6390;49.400;8.670;2022-11-20T14:02:17;12.77;;;8.30;;
12650;SDS011;6390;49.400;8.670;2022-11-20T14:04:45;9.02;;;6.75;;
12650;SDS011;6390;49.400;8.670;2022-11-20T14:07:21;7.53;;;5.47;;
12650;SDS011;6390;49.400;8.670;2022-11-20T14:09:56;6.07;;;4.60;;
12650;SDS011;6390;49.400;8.670;2022-11-20T14:12:30;3.05;;;2.42;;
12650;SDS011;6390;49.400;8.670;2022-11-20T14:14:58;2.65;;;2.20;;
12650;SDS011;6390;49.400;8.670;2022-11-20T14:17:34;2.15;;;1.75;;
12650;SDS011;6390;49.400;8.670;2022-11-20T14:20:02;2.80;;;1.45;;
12650;SDS011;6390;49.400;8.670;2022-11-20T14:22:39;2.83;;;1.42;;
12650;SDS011;6390;49.400;8.670;2022-11-20T14:27:42;2.50;;;1.33;;
12650;SDS011;6390;49.400;8.670;2022-11-20T14:30:14;1.40;;;1.10;;
12650;SDS011;6390;49.400;8.670;2022-11-20T14:32:44;1.73;;;1.30;;
12650;SDS011;6390;49.400;8.670;2022-11-20T14:35:23;2.47;;;1.20;;
12650;SDS011;6390;49.400;8.670;2022-11-20T14:37:53;1.20;;;1.10;;
12650;SDS011;6390;49.400;8.670;2022-11-20T14:40:24;2.00;;;1.23;;
12650;SDS011;6390;49.400;8.670;2022-11-20T14:42:55;1.58;;;1.27;;
12650;SDS011;6390;49.400;8.670;2022-11-20T14:45:22;1.58;;;1.20;;
12650;SDS011;6390;49.400;8.670;2022-11-20T14:47:51;1.65;;;1.10;;
12650;SDS011;6390;49.400;8.670;2022-11-20T14:50:23;2.17;;;1.10;;
12650;SDS011;6390;49.400;8.670;2022-11-20T14:52:53;2.70;;;1.30;;
12650;SDS011;6390;49.400;8.670;2022-11-20T14:55:31;1.58;;;1.25;;
12650;SDS011;6390;49.400;8.670;2022-11-20T14:58:01;3.92;;;1.42;;
12650;SDS011;6390;49.400;8.670;2022-11-20T15:00:31;1.20;;;1.10;;
12650;SDS011;6390;49.400;8.670;2022-11-20T15:02:58;1.58;;;1.48;;
12650;SDS011;6390;49.400;8.670;2022-11-20T15:05:46;1.85;;;1.17;;
12650;SDS011;6390;49.400;8.670;2022-11-20T15:08:13;1.27;;;1.17;;
12650;SDS011;6390;49.400;8.670;2022-11-20T15:10:47;1.60;;;1.10;;
12650;SDS011;6390;49.400;8.670;2022-11-20T15:16:08;1.88;;;1.00;;
12650;SDS011;6390;49.400;8.670;2022-11-20T15:18:48;1.20;;;1.10;;
12650;SDS011;6390;49.400;8.670;2022-11-20T15:21:15;2.42;;;1.10;;
12650;SDS011;6390;49.400;8.670;2022-11-20T15:23:43;1.40;;;1.30;;
12650;SDS011;6390;49.400;8.670;2022-11-20T15:26:10;2.83;;;1.33;;
12650;SDS011;6390;49.400;8.670;2022-11-20T15:28:39;1.70;;;1.15;;
12650;SDS011;6390;49.400;8.670;2022-11-20T15:31:12;1.42;;;1.10;;
12650;SDS011;6390;49.400;8.670;2022-11-20T15:33:41;3.65;;;1.13;;
12650;SDS011;6390;49.400;8.670;2022-11-20T15:36:08;2.25;;;1.23;;
12650;SDS011;6390;49.400;8.670;2022-11-20T15:38:34;1.27;;;1.05;;
12650;SDS011;6390;49.400;8.670;2022-11-20T15:41:00;1.48;;;1.00;;
12650;SDS011;6390;49.400;8.670;2022-11-20T15:43:26;1.85;;;1.35;;
12650;SDS011;6390;49.400;8.670;2022-11-20T15:45:54;1.83;;;1.23;;
12650;SDS011;6390;49.400;8.670;2022-11-20T15:48:28;1.40;;;1.30;;
12650;SDS011;6390;49.400;8.670;2022-11-20T15:54:35;1.63;;;1.30;;
12650;SDS011;6390;49.400;8.670;2022-11-20T15:56:54;1.45;;;1.20;;
12650;SDS011;6390;49.400;8.670;2022-11-20T15:59:20;1.30;;;1.20;;
12650;SDS011;6390;49.400;8.670;2022-11-20T16:01:46;1.98;;;1.30;;
12650;SDS011;6390;49.400;8.670;2022-11-20T16:04:14;3.65;;;1.50;;
12650;SDS011;6390;49.400;8.670;2022-11-20T16:06:41;3.55;;;1.48;;
12650;SDS011;6390;49.400;8.670;2022-11-20T16:09:08;1.13;;;1.05;;
12650;SDS011;6390;49.400;8.670;2022-11-20T16:11:34;1.40;;;1.30;;
12650;SDS011;6390;49.400;8.670;2022-11-20T16:14:01;1.88;;;1.40;;
12650;SDS011;6390;49.400;8.670;2022-11-20T16:16:47;1.27;;;1.17;;
12650;SDS011;6390;49.400;8.670;2022-11-20T16:19:13;2.65;;;1.40;;
12650;SDS011;6390;49.400;8.670;2022-11-20T16:21:40;1.95;;;1.20;;
12650;SDS011;6390;49.400;8.670;2022-11-20T16:24:08;2.42;;;1.30;;
12650;SDS011;6390;49.400;8.670;2022-11-20T16:26:36;2.03;;;1.30;;
12650;SDS011;6390;49.400;8.670;2022-11-20T16:29:03;1.58;;;1.27;;
12650;SDS011;6390;49.400;8.670;2022-11-20T16:31:30;1.20;;;1.10;;
12650;SDS011;6390;49.400;8.670;2022-11-20T16:33:57;3.28;;;1.40;;
12650;SDS011;6390;49.400;8.670;2022-11-20T16:36:26;1.52;;;1.27;;
12650;SDS011;6390;49.400;8.670;2022-11-20T16:38:54;1.40;;;1.30;;
12650;SDS011;6390;49.400;8.670;2022-11-20T16:41:23;3.38;;;1.40;;
12650;SDS011;6390;49.400;8.670;2022-11-20T16:43:51;1.52;;;1.20;;
12650;SDS011;6390;49.400;8.670;2022-11-20T16:46:22;3.70;;;1.85;;
12650;SDS011;6390;49.400;8.670;2022-11-20T16:51:31;3.53;;;1.48;;
12650;SDS011;6390;49.400;8.670;2022-11-20T16:54:00;1.70;;;1.50;;
12650;SDS011;6390;49.400;8.670;2022-11-20T16:56:28;3.15;;;1.50;;
12650;SDS011;6390;49.400;8.670;2022-11-20T16:58:55;2.58;;;1.38;;
12650;SDS011;6390;49.400;8.670;2022-11-20T17:01:23;1.70;;;1.60;;
12650;SDS011;6390;49.400;8.670;2022-11-20T17:04:00;3.35;;;1.70;;